sensor_id;sensor_type;location;lat;lon;timestamp;pressure;altitude;pressure_sealevel;temperature;humidity
56811;BME280;42691;47.234;27.494;2022-08-30T00:00:32;99734.56;;;23.48;100.00
56811;BME280;42691;47.234;27.494;2022-08-30T00:03:17;99737.53;;;23.71;100.00
56811;BME280;42691;47.234;27.494;2022-08-30T00:05:44;99731.66;;;23.59;100.00
56811;BME280;42691;47.234;27.494;2022-08-30T00:08:10;99725.59;;;23.49;100.00
56811;BME280;42691;47.234;27.494;2022-08-30T00:10:36;99730.09;;;23.31;100.00
56811;BME280;42691;47.234;27.494;2022-08-30T00:13:03;99719.94;;;23.26;100.00
56811;BME280;42691;47.234;27.494;2022-08-30T00:15:29;99719.88;;;23.18;100.00
56811;BME280;42691;47.234;27.494;2022-08-30T00:17:54;99702.72;;;23.30;100.00
56811;BME280;42691;47.234;27.494;2022-08-30T00:20:23;99702.50;;;23.24;100.00
56811;BME280;42691;47.234;27.494;2022-08-30T00:22:49;99700.72;;;23.32;100.00
56811;BME280;42691;47.234;27.494;2022-08-30T00:25:15;99710.09;;;23.19;100.00
56811;BME280;42691;47.234;27.494;2022-08-30T00:27:40;99701.44;;;23.17;100.00
56811;BME280;42691;47.234;27.494;2022-08-30T00:30:07;99701.00;;;23.21;100.00
56811;BME280;42691;47.234;27.494;2022-08-30T00:32:33;99684.53;;;23.00;100.00
56811;BME280;42691;47.234;27.494;2022-08-30T00:34:59;99698.44;;;23.12;100.00
56811;BME280;42691;47.234;27.494;2022-08-30T00:37:25;99701.59;;;22.97;100.00
56811;BME280;42691;47.234;27.494;2022-08-30T00:39:50;99702.06;;;22.93;100.00
56811;BME280;42691;47.234;27.494;2022-08-30T00:42:17;99706.84;;;23.07;100.00
56811;BME280;42691;47.234;27.494;2022-08-30T00:44:44;99705.84;;;22.90;100.00
56811;BME280;42691;47.234;27.494;2022-08-30T00:47:09;99708.88;;;22.95;100.00
56811;BME280;42691;47.234;27.494;2022-08-30T00:49:36;99710.47;;;22.88;100.00
56811;BME280;42691;47.234;27.494;2022-08-30T00:52:04;99699.78;;;22.80;100.00
56811;BME280;42691;47.234;27.494;2022-08-30T00:54:33;99710.31;;;22.72;100.00
56811;BME280;42691;47.234;27.494;2022-08-30T00:57:01;99714.94;;;22.88;100.00
56811;BME280;42691;47.234;27.494;2022-08-30T00:59:27;99709.25;;;23.00;100.00
56811;BME280;42691;47.234;27.494;2022-08-30T01:01:53;99714.72;;;22.81;100.00
56811;BME280;42691;47.234;27.494;2022-08-30T01:04:21;99719.78;;;22.74;100.00
56811;BME280;42691;47.234;27.494;2022-08-30T01:06:48;99726.53;;;22.69;100.00
56811;BME280;42691;47.234;27.494;2022-08-30T01:09:14;99732.09;;;22.66;100.00
56811;BME280;42691;47.234;27.494;2022-08-30T01:11:41;99733.03;;;22.74;100.00
56811;BME280;42691;47.234;27.494;2022-08-30T01:14:10;99734.47;;;22.69;100.00
56811;BME280;42691;47.234;27.494;2022-08-30T01:16:36;99738.34;;;22.74;100.00
56811;BME280;42691;47.234;27.494;2022-08-30T01:19:03;99748.13;;;22.74;100.00
56811;BME280;42691;47.234;27.494;2022-08-30T01:21:40;99758.38;;;22.87;100.00
56811;BME280;42691;47.234;27.494;2022-08-30T01:24:08;99766.78;;;22.82;100.00
56811;BME280;42691;47.234;27.494;2022-08-30T01:26:34;99763.41;;;22.80;100.00
56811;BME280;42691;47.234;27.494;2022-08-30T01:29:04;99766.69;;;22.74;100.00
56811;BME280;42691;47.234;27.494;2022-08-30T01:31:31;99764.88;;;22.74;100.00
56811;BME280;42691;47.234;27.494;2022-08-30T01:34:00;99770.75;;;22.68;100.00
56811;BME280;42691;47.234;27.494;2022-08-30T01:36:26;99763.22;;;22.64;100.00
56811;BME280;42691;47.234;27.494;2022-08-30T01:38:54;99762.84;;;22.59;100.00
56811;BME280;42691;47.234;27.494;2022-08-30T01:41:26;99773.50;;;22.76;100.00
56811;BME280;42691;47.234;27.494;2022-08-30T01:43:55;99772.16;;;22.63;100.00
56811;BME280;42691;47.234;27.494;2022-08-30T01:46:23;99776.31;;;22.75;100.00
56811;BME280;42691;47.234;27.494;2022-08-30T01:48:49;99768.81;;;22.61;100.00
56811;BME280;42691;47.234;27.494;2022-08-30T01:51:16;99776.09;;;22.59;100.00
56811;BME280;42691;47.234;27.494;2022-08-30T01:53:43;99775.72;;;22.54;100.00
56811;BME280;42691;47.234;27.494;2022-08-30T01:56:09;99776.56;;;22.54;100.00
56811;BME280;42691;47.234;27.494;2022-08-30T01:58:36;99777.94;;;22.31;100.00
56811;BME280;42691;47.234;27.494;2022-08-30T02:01:04;99780.69;;;22.29;100.00
56811;BME280;42691;47.234;27.494;2022-08-30T02:03:31;99772.13;;;22.18;100.00
56811;BME280;42691;47.234;27.494;2022-08-30T02:06:08;99769.59;;;22.16;100.00
56811;BME280;42691;47.234;27.494;2022-08-30T02:08:34;99773.88;;;22.27;100.00
56811;BME280;42691;47.234;27.494;2022-08-30T02:11:01;99771.66;;;22.22;100.00
56811;BME280;42691;47.234;27.494;2022-08-30T02:13:26;99777.56;;;22.16;100.00
56811;BME280;42691;47.234;27.494;2022-08-30T02:15:52;99779.91;;;22.19;100.00
56811;BME280;42691;47.234;27.494;2022-08-30T02:18:20;99778.72;;;22.04;100.00
56811;BME280;42691;47.234;27.494;2022-08-30T02:20:45;99790.22;;;22.22;100.00
56811;BME280;42691;47.234;27.494;2022-08-30T02:23:11;99779.03;;;22.28;100.00
56811;BME280;42691;47.234;27.494;2022-08-30T02:25:37;99785.75;;;22.23;100.00
56811;BME280;42691;47.234;27.494;2022-08-30T02:28:03;99785.41;;;22.08;100.00
56811;BME280;42691;47.234;27.494;2022-08-30T02:30:29;99793.34;;;21.98;100.00
56811;BME280;42691;47.234;27.494;2022-08-30T02:32:55;99784.97;;;22.03;100.00
56811;BME280;42691;47.234;27.494;2022-08-30T02:35:21;99787.38;;;22.06;100.00
56811;BME280;42691;47.234;27.494;2022-08-30T02:37:47;99791.13;;;22.03;100.00
56811;BME280;42691;47.234;27.494;2022-08-30T02:40:13;99788.50;;;21.84;100.00
56811;BME280;42691;47.234;27.494;2022-08-30T02:42:39;99798.94;;;21.85;100.00
56811;BME280;42691;47.234;27.494;2022-08-30T02:45:06;99799.50;;;21.79;100.00
56811;BME280;42691;47.234;27.494;2022-08-30T02:47:32;99796.00;;;21.89;100.00
56811;BME280;42691;47.234;27.494;2022-08-30T02:49:58;99797.81;;;21.98;100.00
56811;BME280;42691;47.234;27.494;2022-08-30T02:52:23;99803.44;;;21.75;100.00
56811;BME280;42691;47.234;27.494;2022-08-30T02:54:49;99806.19;;;21.83;100.00
56811;BME280;42691;47.234;27.494;2022-08-30T02:57:14;99816.50;;;21.87;100.00
56811;BME280;42691;47.234;27.494;2022-08-30T02:59:39;99815.00;;;21.74;100.00
56811;BME280;42691;47.234;27.494;2022-08-30T03:02:09;99812.72;;;23.00;100.00
56811;BME280;42691;47.234;27.494;2022-08-30T03:04:35;99804.88;;;23.80;100.00
56811;BME280;42691;47.234;27.494;2022-08-30T03:07:01;99819.56;;;22.48;100.00
56811;BME280;42691;47.234;27.494;2022-08-30T03:09:26;99820.53;;;22.10;100.00
56811;BME280;42691;47.234;27.494;2022-08-30T03:11:52;99830.44;;;21.89;100.00
56811;BME280;42691;47.234;27.494;2022-08-30T03:14:18;99836.00;;;21.85;100.00
56811;BME280;42691;47.234;27.494;2022-08-30T03:16:43;99839.50;;;21.86;100.00
56811;BME280;42691;47.234;27.494;2022-08-30T03:19:09;99848.56;;;21.83;100.00
56811;BME280;42691;47.234;27.494;2022-08-30T03:21:35;99850.66;;;21.80;100.00
56811;BME280;42691;47.234;27.494;2022-08-30T03:24:01;99845.78;;;21.85;100.00
56811;BME280;42691;47.234;27.494;2022-08-30T03:26:27;99848.28;;;21.87;100.00
56811;BME280;42691;47.234;27.494;2022-08-30T03:28:52;99848.84;;;22.00;100.00
56811;BME280;42691;47.234;27.494;2022-08-30T03:31:18;99843.53;;;22.09;100.00
56811;BME280;42691;47.234;27.494;2022-08-30T03:33:44;99843.69;;;22.08;100.00
56811;BME280;42691;47.234;27.494;2022-08-30T03:36:09;99843.41;;;22.01;100.00
56811;BME280;42691;47.234;27.494;2022-08-30T03:38:35;99822.19;;;22.11;100.00
56811;BME280;42691;47.234;27.494;2022-08-30T03:41:01;99838.53;;;21.97;100.00
56811;BME280;42691;47.234;27.494;2022-08-30T03:43:26;99839.34;;;21.88;100.00
56811;BME280;42691;47.234;27.494;2022-08-30T03:45:52;99834.06;;;22.07;100.00
56811;BME280;42691;47.234;27.494;2022-08-30T03:48:17;99845.22;;;22.01;100.00
56811;BME280;42691;47.234;27.494;2022-08-30T03:50:43;99837.97;;;22.03;100.00
56811;BME280;42691;47.234;27.494;2022-08-30T03:53:08;99834.06;;;22.07;100.00
56811;BME280;42691;47.234;27.494;2022-08-30T03:55:34;99839.06;;;22.10;100.00
56811;BME280;42691;47.234;27.494;2022-08-30T03:57:59;99838.25;;;21.80;100.00
56811;BME280;42691;47.234;27.494;2022-08-30T04:00:25;99838.25;;;21.80;100.00
56811;BME280;42691;47.234;27.494;2022-08-30T04:02:50;99841.31;;;21.85;100.00
56811;BME280;42691;47.234;27.494;2022-08-30T04:05:16;99842.56;;;22.01;100.00
56811;BME280;42691;47.234;27.494;2022-08-30T04:07:41;99841.59;;;22.02;100.00
56811;BME280;42691;47.234;27.494;2022-08-30T04:10:08;99841.31;;;22.05;100.00
56811;BME280;42691;47.234;27.494;2022-08-30T04:12:34;99853.16;;;22.01;100.00
56811;BME280;42691;47.234;27.494;2022-08-30T04:15:00;99853.31;;;22.09;100.00
56811;BME280;42691;47.234;27.494;2022-08-30T04:17:25;99848.56;;;22.03;100.00
56811;BME280;42691;47.234;27.494;2022-08-30T04:19:51;99861.78;;;22.22;100.00
56811;BME280;42691;47.234;27.494;2022-08-30T04:22:16;99859.25;;;22.30;100.00
56811;BME280;42691;47.234;27.494;2022-08-30T04:24:42;99855.78;;;22.20;100.00
56811;BME280;42691;47.234;27.494;2022-08-30T04:27:08;99859.66;;;22.35;100.00
56811;BME280;42691;47.234;27.494;2022-08-30T04:29:34;99870.56;;;22.23;100.00
56811;BME280;42691;47.234;27.494;2022-08-30T04:32:00;99869.00;;;22.30;100.00
56811;BME280;42691;47.234;27.494;2022-08-30T04:34:26;99864.13;;;22.35;100.00
56811;BME280;42691;47.234;27.494;2022-08-30T04:36:51;99873.56;;;22.47;100.00
56811;BME280;42691;47.234;27.494;2022-08-30T04:39:17;99870.56;;;22.60;100.00
56811;BME280;42691;47.234;27.494;2022-08-30T04:41:43;99871.13;;;22.63;100.00
56811;BME280;42691;47.234;27.494;2022-08-30T04:44:09;99875.72;;;22.71;100.00
56811;BME280;42691;47.234;27.494;2022-08-30T04:46:35;99873.28;;;22.87;100.00
56811;BME280;42691;47.234;27.494;2022-08-30T04:49:03;99870.22;;;23.10;100.00
56811;BME280;42691;47.234;27.494;2022-08-30T04:51:28;99862.44;;;23.26;100.00
56811;BME280;42691;47.234;27.494;2022-08-30T04:53:54;99856.06;;;23.36;100.00
56811;BME280;42691;47.234;27.494;2022-08-30T04:56:21;99844.16;;;23.94;100.00
56811;BME280;42691;47.234;27.494;2022-08-30T04:58:49;99840.28;;;24.14;100.00
56811;BME280;42691;47.234;27.494;2022-08-30T05:01:33;99855.31;;;24.23;100.00
56811;BME280;42691;47.234;27.494;2022-08-30T05:03:58;99855.53;;;24.30;100.00
56811;BME280;42691;47.234;27.494;2022-08-30T05:06:27;99856.75;;;24.70;100.00
56811;BME280;42691;47.234;27.494;2022-08-30T05:08:55;99859.50;;;24.94;100.00
56811;BME280;42691;47.234;27.494;2022-08-30T05:11:21;99864.91;;;25.27;100.00
56811;BME280;42691;47.234;27.494;2022-08-30T05:13:48;99860.47;;;25.35;100.00
56811;BME280;42691;47.234;27.494;2022-08-30T05:16:13;99863.63;;;25.55;100.00
56811;BME280;42691;47.234;27.494;2022-08-30T05:18:43;99871.47;;;25.56;100.00
56811;BME280;42691;47.234;27.494;2022-08-30T05:21:15;99874.47;;;25.62;100.00
56811;BME280;42691;47.234;27.494;2022-08-30T05:23:42;99874.16;;;25.97;100.00
56811;BME280;42691;47.234;27.494;2022-08-30T05:26:21;99877.13;;;26.35;100.00
56811;BME280;42691;47.234;27.494;2022-08-30T05:28:47;99877.13;;;25.53;100.00
56811;BME280;42691;47.234;27.494;2022-08-30T05:33:43;99882.44;;;26.51;100.00
56811;BME280;42691;47.234;27.494;2022-08-30T05:36:10;99875.25;;;26.60;100.00
56811;BME280;42691;47.234;27.494;2022-08-30T05:38:37;99880.28;;;26.46;100.00
56811;BME280;42691;47.234;27.494;2022-08-30T05:41:03;99880.66;;;26.83;100.00
56811;BME280;42691;47.234;27.494;2022-08-30T05:43:28;99889.38;;;26.68;100.00
56811;BME280;42691;47.234;27.494;2022-08-30T05:46:01;99884.34;;;26.82;100.00
56811;BME280;42691;47.234;27.494;2022-08-30T05:48:27;99880.63;;;26.91;100.00
56811;BME280;42691;47.234;27.494;2022-08-30T05:51:04;99885.94;;;26.99;100.00
56811;BME280;42691;47.234;27.494;2022-08-30T05:53:32;99891.00;;;27.48;100.00
56811;BME280;42691;47.234;27.494;2022-08-30T05:56:00;99890.78;;;27.34;100.00
56811;BME280;42691;47.234;27.494;2022-08-30T05:58:25;99889.22;;;27.17;100.00
56811;BME280;42691;47.234;27.494;2022-08-30T06:00:50;99890.53;;;27.21;100.00
56811;BME280;42691;47.234;27.494;2022-08-30T06:03:16;99885.66;;;27.48;100.00
56811;BME280;42691;47.234;27.494;2022-08-30T06:05:41;99894.94;;;27.60;100.00
56811;BME280;42691;47.234;27.494;2022-08-30T06:08:07;99900.38;;;27.97;100.00
56811;BME280;42691;47.234;27.494;2022-08-30T06:10:32;99904.34;;;28.01;100.00
56811;BME280;42691;47.234;27.494;2022-08-30T06:12:58;99902.88;;;27.76;100.00
56811;BME280;42691;47.234;27.494;2022-08-30T06:15:23;99904.59;;;27.92;100.00
56811;BME280;42691;47.234;27.494;2022-08-30T06:17:49;99899.38;;;28.13;100.00
56811;BME280;42691;47.234;27.494;2022-08-30T06:20:14;99900.47;;;28.04;100.00
56811;BME280;42691;47.234;27.494;2022-08-30T06:22:43;99895.88;;;28.13;100.00
56811;BME280;42691;47.234;27.494;2022-08-30T06:25:09;99894.47;;;28.25;100.00
56811;BME280;42691;47.234;27.494;2022-08-30T06:27:35;99903.13;;;28.27;100.00
56811;BME280;42691;47.234;27.494;2022-08-30T06:30:00;99894.84;;;28.51;100.00
56811;BME280;42691;47.234;27.494;2022-08-30T06:32:26;99889.78;;;28.42;100.00
56811;BME280;42691;47.234;27.494;2022-08-30T06:34:51;99896.88;;;28.35;100.00
56811;BME280;42691;47.234;27.494;2022-08-30T06:37:17;99901.59;;;28.62;100.00
56811;BME280;42691;47.234;27.494;2022-08-30T06:39:42;99892.91;;;28.75;100.00
56811;BME280;42691;47.234;27.494;2022-08-30T06:42:08;99893.81;;;28.97;100.00
56811;BME280;42691;47.234;27.494;2022-08-30T06:44:33;99901.59;;;28.10;100.00
56811;BME280;42691;47.234;27.494;2022-08-30T06:46:59;99901.94;;;28.44;100.00
56811;BME280;42691;47.234;27.494;2022-08-30T06:49:24;99902.97;;;28.73;100.00
56811;BME280;42691;47.234;27.494;2022-08-30T06:51:49;99893.63;;;28.98;100.00
56811;BME280;42691;47.234;27.494;2022-08-30T06:54:17;99888.56;;;28.74;100.00
56811;BME280;42691;47.234;27.494;2022-08-30T06:56:42;99896.34;;;28.69;100.00
56811;BME280;42691;47.234;27.494;2022-08-30T06:59:08;99900.03;;;28.68;100.00
56811;BME280;42691;47.234;27.494;2022-08-30T07:01:34;99901.50;;;28.85;100.00
56811;BME280;42691;47.234;27.494;2022-08-30T07:03:59;99902.34;;;28.85;100.00
56811;BME280;42691;47.234;27.494;2022-08-30T07:06:26;99906.66;;;28.05;100.00
56811;BME280;42691;47.234;27.494;2022-08-30T07:08:53;99906.75;;;28.11;100.00
56811;BME280;42691;47.234;27.494;2022-08-30T07:11:31;99905.38;;;28.38;100.00
56811;BME280;42691;47.234;27.494;2022-08-30T07:13:57;99907.47;;;28.43;100.00
56811;BME280;42691;47.234;27.494;2022-08-30T07:16:23;99903.53;;;28.16;100.00
56811;BME280;42691;47.234;27.494;2022-08-30T07:18:49;99909.69;;;28.01;100.00
56811;BME280;42691;47.234;27.494;2022-08-30T07:21:17;99907.38;;;27.76;100.00
56811;BME280;42691;47.234;27.494;2022-08-30T07:23:45;99874.19;;;27.70;100.00
56811;BME280;42691;47.234;27.494;2022-08-30T07:26:14;99910.59;;;27.94;100.00
56811;BME280;42691;47.234;27.494;2022-08-30T07:28:42;99912.97;;;27.66;100.00
56811;BME280;42691;47.234;27.494;2022-08-30T07:31:09;99918.31;;;27.66;100.00
56811;BME280;42691;47.234;27.494;2022-08-30T07:33:34;99911.50;;;27.63;100.00
56811;BME280;42691;47.234;27.494;2022-08-30T07:36:00;99908.69;;;27.80;100.00
56811;BME280;42691;47.234;27.494;2022-08-30T07:38:26;99904.13;;;27.88;100.00
56811;BME280;42691;47.234;27.494;2022-08-30T07:40:52;99913.19;;;28.02;100.00
56811;BME280;42691;47.234;27.494;2022-08-30T07:43:17;99908.75;;;27.94;100.00
56811;BME280;42691;47.234;27.494;2022-08-30T07:45:43;99904.13;;;27.88;100.00
56811;BME280;42691;47.234;27.494;2022-08-30T07:48:09;99909.13;;;27.91;100.00
56811;BME280;42691;47.234;27.494;2022-08-30T07:50:36;99902.94;;;27.68;100.00
56811;BME280;42691;47.234;27.494;2022-08-30T07:53:03;99909.63;;;27.87;100.00
56811;BME280;42691;47.234;27.494;2022-08-30T07:55:28;99914.09;;;27.94;100.00
56811;BME280;42691;47.234;27.494;2022-08-30T07:57:54;99907.03;;;27.79;100.00
56811;BME280;42691;47.234;27.494;2022-08-30T08:00:19;99921.75;;;27.52;100.00
56811;BME280;42691;47.234;27.494;2022-08-30T08:02:45;99925.91;;;27.54;100.00
56811;BME280;42691;47.234;27.494;2022-08-30T08:05:10;99918.06;;;27.53;100.00
56811;BME280;42691;47.234;27.494;2022-08-30T08:07:38;99921.34;;;27.63;100.00
56811;BME280;42691;47.234;27.494;2022-08-30T08:10:04;99927.03;;;27.60;100.00
56811;BME280;42691;47.234;27.494;2022-08-30T08:12:29;99922.75;;;27.51;100.00
56811;BME280;42691;47.234;27.494;2022-08-30T08:14:55;99915.91;;;27.17;100.00
56811;BME280;42691;47.234;27.494;2022-08-30T08:17:20;99917.97;;;27.38;100.00
56811;BME280;42691;47.234;27.494;2022-08-30T08:19:46;99930.31;;;27.70;100.00
56811;BME280;42691;47.234;27.494;2022-08-30T08:22:11;99918.72;;;27.55;100.00
56811;BME280;42691;47.234;27.494;2022-08-30T08:24:37;99916.34;;;27.60;100.00
56811;BME280;42691;47.234;27.494;2022-08-30T08:27:02;99903.34;;;27.49;100.00
56811;BME280;42691;47.234;27.494;2022-08-30T08:29:28;99920.56;;;27.46;100.00
56811;BME280;42691;47.234;27.494;2022-08-30T08:31:53;99910.25;;;27.12;100.00
56811;BME280;42691;47.234;27.494;2022-08-30T08:34:20;99918.78;;;27.38;100.00
56811;BME280;42691;47.234;27.494;2022-08-30T08:36:48;99914.75;;;27.42;100.00
56811;BME280;42691;47.234;27.494;2022-08-30T08:39:15;99907.69;;;27.50;100.00
56811;BME280;42691;47.234;27.494;2022-08-30T08:50:03;99905.38;;;27.47;100.00
56811;BME280;42691;47.234;27.494;2022-08-30T08:52:56;99903.97;;;27.59;100.00
56811;BME280;42691;47.234;27.494;2022-08-30T08:55:56;99903.13;;;27.35;100.00
56811;BME280;42691;47.234;27.494;2022-08-30T08:58:31;99896.81;;;27.28;100.00
56811;BME280;42691;47.234;27.494;2022-08-30T09:01:01;99894.19;;;27.20;100.00
56811;BME280;42691;47.234;27.494;2022-08-30T09:03:28;99902.31;;;27.58;100.00
56811;BME280;42691;47.234;27.494;2022-08-30T09:05:54;99892.03;;;27.47;100.00
56811;BME280;42691;47.234;27.494;2022-08-30T09:08:22;99891.97;;;27.55;100.00
56811;BME280;42691;47.234;27.494;2022-08-30T09:10:53;99884.47;;;27.50;100.00
56811;BME280;42691;47.234;27.494;2022-08-30T09:13:22;99883.94;;;27.63;100.00
56811;BME280;42691;47.234;27.494;2022-08-30T09:15:53;99886.78;;;27.61;100.00
56811;BME280;42691;47.234;27.494;2022-08-30T09:18:19;99884.97;;;27.54;100.00
56811;BME280;42691;47.234;27.494;2022-08-30T09:20:47;99886.44;;;27.64;100.00
56811;BME280;42691;47.234;27.494;2022-08-30T09:25:57;99877.13;;;27.29;100.00
56811;BME280;42691;47.234;27.494;2022-08-30T09:28:34;99874.50;;;27.44;100.00
56811;BME280;42691;47.234;27.494;2022-08-30T09:31:18;99871.91;;;27.36;100.00
56811;BME280;42691;47.234;27.494;2022-08-30T09:34:01;99869.97;;;27.53;100.00
56811;BME280;42691;47.234;27.494;2022-08-30T09:36:51;99860.84;;;27.39;100.00
56811;BME280;42691;47.234;27.494;2022-08-30T09:39:31;99858.25;;;27.54;100.00
56811;BME280;42691;47.234;27.494;2022-08-30T09:42:18;99861.59;;;27.56;100.00
56811;BME280;42691;47.234;27.494;2022-08-30T09:44:44;99857.34;;;27.38;100.00
56811;BME280;42691;47.234;27.494;2022-08-30T09:47:29;99854.47;;;27.71;100.00
56811;BME280;42691;47.234;27.494;2022-08-30T09:58:24;99842.19;;;27.99;100.00
56811;BME280;42691;47.234;27.494;2022-08-30T10:06:46;99830.00;;;28.12;100.00
56811;BME280;42691;47.234;27.494;2022-08-30T10:09:35;99822.16;;;28.33;100.00
56811;BME280;42691;47.234;27.494;2022-08-30T10:22:59;99820.25;;;28.78;100.00
56811;BME280;42691;47.234;27.494;2022-08-30T10:25:37;99811.75;;;28.89;100.00
56811;BME280;42691;47.234;27.494;2022-08-30T10:28:18;99815.97;;;28.32;100.00
56811;BME280;42691;47.234;27.494;2022-08-30T10:30:53;99817.41;;;28.50;100.00
56811;BME280;42691;47.234;27.494;2022-08-30T10:33:24;99816.09;;;28.60;100.00
56811;BME280;42691;47.234;27.494;2022-08-30T10:35:58;99817.22;;;28.51;100.00
56811;BME280;42691;47.234;27.494;2022-08-30T10:38:32;99819.50;;;28.10;100.00
56811;BME280;42691;47.234;27.494;2022-08-30T10:46:23;99810.53;;;28.26;100.00
56811;BME280;42691;47.234;27.494;2022-08-30T10:48:51;99810.84;;;28.23;100.00
56811;BME280;42691;47.234;27.494;2022-08-30T10:51:29;99799.25;;;28.45;100.00
56811;BME280;42691;47.234;27.494;2022-08-30T10:54:09;99811.97;;;28.43;100.00
56811;BME280;42691;47.234;27.494;2022-08-30T10:56:39;99815.00;;;28.55;100.00
56811;BME280;42691;47.234;27.494;2022-08-30T10:59:06;99803.28;;;28.71;100.00
56811;BME280;42691;47.234;27.494;2022-08-30T11:01:52;99813.03;;;28.93;100.00
56811;BME280;42691;47.234;27.494;2022-08-30T11:05:18;99811.09;;;29.02;100.00
56811;BME280;42691;47.234;27.494;2022-08-30T11:08:04;99805.25;;;28.98;100.00
56811;BME280;42691;47.234;27.494;2022-08-30T11:10:33;99806.81;;;29.07;100.00
56811;BME280;42691;47.234;27.494;2022-08-30T11:13:35;99800.81;;;29.05;100.00
56811;BME280;42691;47.234;27.494;2022-08-30T11:16:05;99804.72;;;29.24;100.00
56811;BME280;42691;47.234;27.494;2022-08-30T11:18:40;99802.81;;;29.39;100.00
56811;BME280;42691;47.234;27.494;2022-08-30T11:21:33;99799.53;;;29.01;100.00
56811;BME280;42691;47.234;27.494;2022-08-30T11:24:08;99790.31;;;28.89;100.00
56811;BME280;42691;47.234;27.494;2022-08-30T11:29:37;99782.31;;;28.74;100.00
56811;BME280;42691;47.234;27.494;2022-08-30T11:44:49;99766.81;;;29.27;100.00
56811;BME280;42691;47.234;27.494;2022-08-30T11:47:37;99762.41;;;29.19;100.00
56811;BME280;42691;47.234;27.494;2022-08-30T11:58:26;99746.00;;;28.50;100.00
56811;BME280;42691;47.234;27.494;2022-08-30T12:07:04;99746.84;;;28.87;100.00
56811;BME280;42691;47.234;27.494;2022-08-30T12:14:47;99739.69;;;28.94;100.00
56811;BME280;42691;47.234;27.494;2022-08-30T12:17:21;99734.22;;;29.23;100.00
56811;BME280;42691;47.234;27.494;2022-08-30T12:20:21;99731.81;;;29.07;100.00
56811;BME280;42691;47.234;27.494;2022-08-30T12:22:48;99724.25;;;28.75;100.00
56811;BME280;42691;47.234;27.494;2022-08-30T12:25:27;99719.94;;;28.95;100.00
56811;BME280;42691;47.234;27.494;2022-08-30T12:28:16;99717.22;;;29.10;100.00
56811;BME280;42691;47.234;27.494;2022-08-30T12:30:44;99708.59;;;28.93;100.00
56811;BME280;42691;47.234;27.494;2022-08-30T12:33:13;99703.72;;;28.82;100.00
56811;BME280;42691;47.234;27.494;2022-08-30T12:35:46;99703.38;;;28.85;100.00
56811;BME280;42691;47.234;27.494;2022-08-30T12:38:19;99691.69;;;29.14;100.00
56811;BME280;42691;47.234;27.494;2022-08-30T12:40:57;99697.63;;;29.09;100.00
56811;BME280;42691;47.234;27.494;2022-08-30T12:43:36;99693.28;;;29.08;100.00
56811;BME280;42691;47.234;27.494;2022-08-30T12:46:06;99694.81;;;29.17;100.00
56811;BME280;42691;47.234;27.494;2022-08-30T12:48:35;99689.06;;;29.20;100.00
56811;BME280;42691;47.234;27.494;2022-08-30T12:51:03;99688.91;;;29.29;100.00
56811;BME280;42691;47.234;27.494;2022-08-30T12:53:40;99682.03;;;29.19;100.00
56811;BME280;42691;47.234;27.494;2022-08-30T12:56:12;99680.53;;;29.10;100.00
56811;BME280;42691;47.234;27.494;2022-08-30T12:58:50;99672.66;;;29.02;100.00
56811;BME280;42691;47.234;27.494;2022-08-30T13:04:02;99667.34;;;29.09;100.00
56811;BME280;42691;47.234;27.494;2022-08-30T13:09:41;99667.28;;;29.02;100.00
56811;BME280;42691;47.234;27.494;2022-08-30T13:12:21;99660.41;;;29.21;100.00
56811;BME280;42691;47.234;27.494;2022-08-30T13:14:47;99672.31;;;29.12;100.00
56811;BME280;42691;47.234;27.494;2022-08-30T13:22:37;99664.78;;;29.50;100.00
56811;BME280;42691;47.234;27.494;2022-08-30T13:25:05;99654.28;;;29.27;100.00
56811;BME280;42691;47.234;27.494;2022-08-30T13:27:33;99660.59;;;29.41;100.00
56811;BME280;42691;47.234;27.494;2022-08-30T13:30:09;99660.22;;;29.44;100.00
56811;BME280;42691;47.234;27.494;2022-08-30T13:32:35;99652.81;;;29.46;100.00
56811;BME280;42691;47.234;27.494;2022-08-30T13:35:05;99652.53;;;29.41;100.00
56811;BME280;42691;47.234;27.494;2022-08-30T13:37:31;99652.19;;;29.22;100.00
56811;BME280;42691;47.234;27.494;2022-08-30T13:39:58;99662.50;;;29.25;100.00
56811;BME280;42691;47.234;27.494;2022-08-30T13:42:23;99642.50;;;29.21;100.00
56811;BME280;42691;47.234;27.494;2022-08-30T13:44:49;99645.81;;;29.23;100.00
56811;BME280;42691;47.234;27.494;2022-08-30T13:47:15;99653.56;;;29.40;100.00
56811;BME280;42691;47.234;27.494;2022-08-30T13:49:41;99650.31;;;29.44;100.00
56811;BME280;42691;47.234;27.494;2022-08-30T13:52:10;99652.94;;;29.38;100.00
56811;BME280;42691;47.234;27.494;2022-08-30T13:54:36;99647.81;;;29.43;100.00
56811;BME280;42691;47.234;27.494;2022-08-30T13:57:02;99648.41;;;29.38;100.00
56811;BME280;42691;47.234;27.494;2022-08-30T13:59:27;99645.13;;;29.15;100.00
56811;BME280;42691;47.234;27.494;2022-08-30T14:01:58;99641.72;;;29.27;100.00
56811;BME280;42691;47.234;27.494;2022-08-30T14:04:24;99645.81;;;29.23;100.00
56811;BME280;42691;47.234;27.494;2022-08-30T14:06:49;99636.81;;;29.03;100.00
56811;BME280;42691;47.234;27.494;2022-08-30T14:09:15;99647.91;;;29.00;100.00
56811;BME280;42691;47.234;27.494;2022-08-30T14:11:40;99624.94;;;28.91;100.00
56811;BME280;42691;47.234;27.494;2022-08-30T14:14:06;99642.56;;;29.00;100.00
56811;BME280;42691;47.234;27.494;2022-08-30T14:16:33;99639.97;;;28.92;100.00
56811;BME280;42691;47.234;27.494;2022-08-30T14:19:00;99635.84;;;28.89;100.00